Time;durP1;ratioP1;P1;durP2;ratioP2;P2;SDS_P1;SDS_P2;PMS_P1;PMS_P2;Temp;Humidity;BMP_temperature;BMP_pressure;BME280_temperature;BME280_humidity;BME280_pressure;Samples;Min_cycle;Max_cycle;Signal;HPM_P1;HPM_P2
2022/02/11 00:01:55;;;;;;;2.97;1.88;;;21.10;56.70;;;;;;4991741;28;87615;-83
2022/02/11 00:07:08;;;;;;;3.65;2.20;;;21.10;56.90;;;;;;4989692;28;88399;-84
2022/02/11 00:09:06;;;;;;;2.38;1.88;;;21.10;56.80;;;;;;4981175;28;88128;-83
2022/02/11 00:11:39;;;;;;;4.22;2.38;;;21.10;56.70;;;;;;4990461;28;87912;-83
2022/02/11 00:14:06;;;;;;;3.05;1.90;;;21.00;56.50;;;;;;4991096;28;87743;-83
2022/02/11 00:16:33;;;;;;;3.33;1.95;;;21.00;56.40;;;;;;4990827;28;87944;-82
2022/02/11 00:18:59;;;;;;;3.00;1.98;;;21.00;56.50;;;;;;4990337;28;87575;-83
2022/02/11 00:21:31;;;;;;;2.53;1.60;;;21.00;56.40;;;;;;4990605;28;87413;-83
2022/02/11 00:24:00;;;;;;;4.15;1.85;;;21.00;56.60;;;;;;4983345;28;89795;-83
2022/02/11 00:26:32;;;;;;;3.45;2.00;;;21.00;56.40;;;;;;4983063;28;87799;-83
2022/02/11 00:33:57;;;;;;;2.47;2.03;;;21.00;56.40;;;;;;4992723;28;87774;-82
2022/02/11 00:36:35;;;;;;;2.75;1.90;;;21.00;56.30;;;;;;4992264;28;87041;-81
2022/02/11 01:03:03;;;;;;;3.03;1.90;;;20.90;56.00;;;;;;4991663;28;88471;-84
2022/02/11 01:05:38;;;;;;;3.78;1.70;;;20.90;56.10;;;;;;4980878;28;88714;-82
2022/02/11 01:08:04;;;;;;;2.83;2.05;;;20.90;55.90;;;;;;4991330;28;88944;-83
2022/02/11 01:10:32;;;;;;;2.97;2.00;;;20.90;56.10;;;;;;4991051;28;87353;-83
2022/02/11 01:12:58;;;;;;;2.60;1.80;;;20.90;55.80;;;;;;4991456;28;87221;-82
2022/02/11 01:15:24;;;;;;;3.35;1.90;;;20.90;55.90;;;;;;4990282;28;86598;-83
2022/02/11 01:17:55;;;;;;;2.53;1.88;;;20.80;55.70;;;;;;4989672;28;87680;-83
2022/02/11 01:21:10;;;;;;;2.50;1.77;;;20.80;55.80;;;;;;4987472;28;89090;-83
2022/02/11 01:23:22;;;;;;;6.20;2.00;;;20.80;55.70;;;;;;4979042;28;88482;-83
2022/02/11 01:28:34;;;;;;;3.03;2.00;;;20.80;55.60;;;;;;4993364;28;87567;-83
2022/02/11 01:31:19;;;;;;;2.05;1.70;;;20.80;55.50;;;;;;4992280;28;87760;-83
2022/02/11 01:34:20;;;;;;;2.20;1.77;;;20.80;55.40;;;;;;4993703;28;86934;-84
2022/02/11 01:57:12;;;;;;;2.17;1.60;;;20.70;55.30;;;;;;4992424;28;87299;-83
2022/02/11 02:05:54;;;;;;;3.25;1.88;;;20.70;55.30;;;;;;4992403;28;87231;-84
2022/02/11 02:19:51;;;;;;;3.30;2.00;;;20.70;55.10;;;;;;4992038;28;88126;-83
2022/02/11 02:57:44;;;;;;;2.60;1.77;;;20.60;54.80;;;;;;4991552;28;87430;-83
2022/02/11 03:35:16;;;;;;;2.75;2.00;;;20.40;54.20;;;;;;4990315;28;87138;-83
2022/02/11 04:08:42;;;;;;;2.78;2.03;;;20.40;53.70;;;;;;4990244;28;87297;-83
2022/02/11 04:55:44;;;;;;;3.17;2.05;;;20.20;53.20;;;;;;4988850;28;87456;-82
2022/02/11 05:00:57;;;;;;;2.65;2.08;;;20.30;53.20;;;;;;4993383;28;88893;-82
2022/02/11 05:03:22;;;;;;;2.25;1.77;;;20.20;53.20;;;;;;4993264;28;87643;-82
2022/02/11 05:05:51;;;;;;;2.53;2.00;;;20.20;53.00;;;;;;4991267;28;90562;-84
2022/02/11 05:08:35;;;;;;;2.65;2.13;;;20.20;52.90;;;;;;4991513;28;89610;-83
2022/02/11 05:11:02;;;;;;;3.20;2.15;;;20.20;52.90;;;;;;4993172;28;87611;-83
2022/02/11 05:16:12;;;;;;;2.28;1.80;;;20.20;52.90;;;;;;4992856;28;87452;-83
2022/02/11 05:21:31;;;;;;;4.32;1.95;;;20.20;52.80;;;;;;4992760;28;87443;-83
2022/02/11 05:23:57;;;;;;;3.00;1.85;;;20.20;52.70;;;;;;4992882;28;87796;-82
2022/02/11 05:26:22;;;;;;;2.20;1.70;;;20.20;52.70;;;;;;4990604;28;90658;-83
2022/02/11 05:28:48;;;;;;;3.05;1.70;;;20.20;52.70;;;;;;4992869;28;87808;-83
2022/02/11 05:31:14;;;;;;;3.42;2.00;;;20.20;52.80;;;;;;4992121;28;87393;-82
2022/02/11 05:33:39;;;;;;;2.80;1.80;;;20.20;52.80;;;;;;4992688;28;87681;-83
2022/02/11 05:36:05;;;;;;;2.95;1.95;;;20.20;52.80;;;;;;4992702;28;87506;-83
2022/02/11 05:38:31;;;;;;;3.50;2.15;;;20.20;52.50;;;;;;4992564;28;87878;-83
2022/02/11 05:40:56;;;;;;;2.95;1.90;;;20.20;52.60;;;;;;4992276;28;87462;-83
2022/02/11 05:43:22;;;;;;;2.60;1.55;;;20.20;52.50;;;;;;4992072;28;86966;-83
2022/02/11 05:45:48;;;;;;;3.10;1.80;;;20.10;52.50;;;;;;4990249;28;88321;-84
2022/02/11 05:48:13;;;;;;;3.47;1.88;;;20.10;52.50;;;;;;4993057;28;87389;-83
2022/02/11 05:50:39;;;;;;;2.38;1.55;;;20.10;52.50;;;;;;4992891;28;88128;-83
2022/02/11 05:53:05;;;;;;;3.28;2.08;;;20.10;52.60;;;;;;4992429;28;87277;-84
2022/02/11 05:55:34;;;;;;;2.42;1.60;;;20.10;52.60;;;;;;4991449;28;88027;-84
2022/02/11 05:58:00;;;;;;;2.92;1.70;;;20.10;52.30;;;;;;4990226;28;90336;-84
2022/02/11 06:00:26;;;;;;;2.88;1.80;;;20.10;52.40;;;;;;5007294;28;87478;-83
2022/02/11 06:02:52;;;;;;;2.85;1.92;;;20.10;52.30;;;;;;4990895;28;87560;-84
2022/02/11 06:05:19;;;;;;;3.70;1.95;;;20.10;52.50;;;;;;4990170;28;91060;-84
2022/02/11 06:07:45;;;;;;;4.43;1.98;;;20.10;52.30;;;;;;4991600;28;88129;-84
2022/02/11 06:10:11;;;;;;;2.45;1.80;;;20.10;52.30;;;;;;4990895;28;87962;-84
2022/02/11 06:12:37;;;;;;;2.85;1.63;;;20.10;52.30;;;;;;4991949;28;87335;-84
2022/02/11 06:15:03;;;;;;;4.45;1.80;;;20.10;52.30;;;;;;4991459;28;88734;-83
2022/02/11 06:17:29;;;;;;;4.05;2.00;;;20.10;52.20;;;;;;4992078;28;88347;-84
2022/02/11 06:19:57;;;;;;;11.32;2.33;;;20.10;52.40;;;;;;5006481;28;87259;-83
2022/02/11 06:22:23;;;;;;;6.88;2.05;;;20.20;52.60;;;;;;4989805;28;87713;-83
2022/02/11 06:24:48;;;;;;;6.72;2.20;;;20.20;52.30;;;;;;4991943;28;87261;-83
2022/02/11 06:27:15;;;;;;;7.65;2.28;;;20.30;52.40;;;;;;4991603;28;87691;-83
2022/02/11 06:29:41;;;;;;;4.03;2.30;;;20.40;52.60;;;;;;4991824;28;87014;-83
2022/02/11 06:32:07;;;;;;;3.95;2.33;;;20.40;52.70;;;;;;4989354;28;87484;-84
2022/02/11 06:34:33;;;;;;;5.28;2.40;;;20.40;52.90;;;;;;4990573;28;87994;-83
2022/02/11 06:36:58;;;;;;;4.47;2.80;;;20.50;52.10;;;;;;4990962;28;87827;-84
2022/02/11 06:39:25;;;;;;;6.65;2.70;;;20.50;52.30;;;;;;4990764;28;88043;-84
2022/02/11 06:41:58;;;;;;;7.65;2.50;;;20.60;52.30;;;;;;4990715;28;87371;-84
2022/02/11 06:44:23;;;;;;;6.70;3.35;;;20.60;52.20;;;;;;4990718;28;88029;-84
2022/02/11 06:46:49;;;;;;;5.30;2.72;;;20.60;51.80;;;;;;4990218;28;88080;-84
2022/02/11 06:49:14;;;;;;;7.65;2.78;;;20.60;51.90;;;;;;4991036;28;88219;-84
2022/02/11 06:51:40;;;;;;;4.13;2.40;;;20.70;51.70;;;;;;4991311;28;87663;-84
2022/02/11 06:54:06;;;;;;;5.47;2.70;;;20.70;51.70;;;;;;4988840;28;90016;-83
2022/02/11 06:56:32;;;;;;;5.13;2.55;;;20.70;51.30;;;;;;4979957;28;90622;-85
2022/02/11 06:58:57;;;;;;;4.25;2.47;;;20.70;51.20;;;;;;4991006;28;87859;-84
2022/02/11 07:01:24;;;;;;;5.03;2.50;;;20.70;51.00;;;;;;4989382;28;88263;-84
2022/02/11 07:03:50;;;;;;;5.43;2.47;;;20.70;50.80;;;;;;4990388;28;88808;-84
2022/02/11 07:06:16;;;;;;;7.07;2.50;;;20.70;50.70;;;;;;4981436;28;88077;-84
2022/02/11 07:08:41;;;;;;;5.22;2.42;;;20.70;50.60;;;;;;4989115;28;87481;-84
2022/02/11 07:11:07;;;;;;;3.92;2.30;;;20.70;51.30;;;;;;4987451;28;89054;-84
2022/02/11 07:13:33;;;;;;;4.32;2.28;;;20.80;50.80;;;;;;4992906;28;88165;-83
2022/02/11 07:15:58;;;;;;;4.97;2.80;;;20.70;50.90;;;;;;4990223;28;87186;-84
2022/02/11 07:18:24;;;;;;;6.40;2.50;;;20.80;50.80;;;;;;4990410;28;88041;-84
2022/02/11 07:20:50;;;;;;;5.20;2.28;;;20.70;50.60;;;;;;4990595;28;87049;-84
2022/02/11 07:23:16;;;;;;;3.03;2.10;;;20.70;50.70;;;;;;4990085;28;88316;-84
2022/02/11 07:25:42;;;;;;;4.88;2.10;;;20.70;51.60;;;;;;4975286;28;89174;-84
2022/02/11 07:28:08;;;;;;;4.10;2.25;;;20.70;51.00;;;;;;4990496;28;90389;-84
2022/02/11 07:30:39;;;;;;;6.50;2.53;;;20.70;51.60;;;;;;4990115;28;87794;-83
2022/02/11 07:33:05;;;;;;;3.88;2.30;;;20.70;51.30;;;;;;4990718;28;88052;-83
2022/02/11 07:35:31;;;;;;;6.63;2.65;;;20.70;51.10;;;;;;4989228;28;87919;-83
2022/02/11 07:37:57;;;;;;;3.90;2.10;;;20.80;51.10;;;;;;4990063;28;87456;-83
2022/02/11 07:40:23;;;;;;;5.20;2.00;;;20.80;50.70;;;;;;4990224;28;87739;-84
2022/02/11 07:42:52;;;;;;;3.95;2.30;;;20.70;50.50;;;;;;4990096;28;87579;-83
2022/02/11 07:45:19;;;;;;;4.90;2.15;;;20.80;50.80;;;;;;4990132;28;88089;-83
2022/02/11 07:47:46;;;;;;;4.10;2.10;;;20.80;51.10;;;;;;4990013;28;86907;-83
2022/02/11 07:50:11;;;;;;;5.35;2.90;;;20.80;50.90;;;;;;4988871;28;87942;-83
2022/02/11 07:52:37;;;;;;;5.93;2.50;;;20.80;50.70;;;;;;4987692;28;89071;-83
2022/02/11 07:55:04;;;;;;;6.97;2.70;;;20.80;51.50;;;;;;4989786;28;88695;-83
2022/02/11 07:57:30;;;;;;;6.93;2.75;;;20.80;48.80;;;;;;4990642;28;88154;-83
2022/02/11 07:59:56;;;;;;;3.92;2.42;;;20.80;49.30;;;;;;4992407;28;87222;-83
2022/02/11 08:02:21;;;;;;;12.52;4.07;;;20.80;49.70;;;;;;4990259;28;87631;-82
2022/02/11 08:04:47;;;;;;;15.50;6.03;;;20.70;51.00;;;;;;4989763;28;87481;-83
2022/02/11 08:07:12;;;;;;;16.95;7.35;;;20.70;51.70;;;;;;4988833;28;87661;-84
2022/02/11 08:09:38;;;;;;;22.55;10.00;;;20.70;52.90;;;;;;4990626;28;87454;-83
2022/02/11 08:12:04;;;;;;;19.80;8.70;;;20.70;54.00;;;;;;4988717;28;88645;-83
2022/02/11 08:14:30;;;;;;;11.75;5.47;;;20.70;53.20;;;;;;4990142;28;88038;-83
2022/02/11 08:17:00;;;;;;;16.55;6.60;;;20.80;52.50;;;;;;4978351;28;88108;-83
2022/02/11 08:19:26;;;;;;;9.45;4.47;;;20.80;53.60;;;;;;4988852;28;87368;-84
2022/02/11 08:21:51;;;;;;;9.77;4.80;;;20.80;52.80;;;;;;4981190;28;91624;-83
2022/02/11 08:24:17;;;;;;;15.32;6.00;;;20.80;52.70;;;;;;4993016;28;87945;-83
2022/02/11 08:26:44;;;;;;;12.55;4.78;;;20.80;52.70;;;;;;4981503;28;88671;-85
2022/02/11 08:29:11;;;;;;;15.50;5.25;;;20.90;52.90;;;;;;4988657;28;87026;-83
2022/02/11 08:31:36;;;;;;;12.90;4.85;;;20.90;52.70;;;;;;4986832;28;88936;-83
2022/02/11 08:34:02;;;;;;;12.30;5.35;;;20.90;52.80;;;;;;4988042;28;87813;-81
2022/02/11 08:36:28;;;;;;;12.38;5.78;;;20.90;52.90;;;;;;4983424;28;88716;-84
2022/02/11 08:38:55;;;;;;;16.73;5.45;;;20.90;52.50;;;;;;4988315;28;87014;-83
2022/02/11 08:41:24;;;;;;;13.60;5.10;;;20.90;52.50;;;;;;4987050;28;89950;-83
2022/02/11 08:43:50;;;;;;;31.30;8.57;;;20.90;52.70;;;;;;4989217;28;88540;-83
2022/02/11 08:46:16;;;;;;;29.67;8.00;;;20.90;52.20;;;;;;4988853;28;87654;-83
2022/02/11 08:48:42;;;;;;;28.00;7.43;;;20.90;52.20;;;;;;4988456;28;87956;-84
2022/02/11 08:51:07;;;;;;;26.63;7.05;;;20.90;51.80;;;;;;4986946;28;87934;-84
2022/02/11 08:53:36;;;;;;;26.10;7.35;;;20.90;52.30;;;;;;4988322;28;88099;-84
2022/02/11 08:56:07;;;;;;;19.20;6.80;;;20.90;52.50;;;;;;4989376;28;88006;-84
2022/02/11 08:58:41;;;;;;;20.98;6.55;;;20.90;52.80;;;;;;4988882;28;86454;-84
2022/02/11 09:01:06;;;;;;;19.13;6.82;;;20.90;53.10;;;;;;4897855;28;88050;-84
2022/02/11 09:03:34;;;;;;;21.65;6.50;;;20.90;53.40;;;;;;4978401;28;87380;-84
2022/02/11 09:06:01;;;;;;;20.33;6.45;;;20.90;53.70;;;;;;4969289;28;88046;-84
2022/02/11 09:08:26;;;;;;;27.52;7.65;;;20.90;53.70;;;;;;5002999;28;89516;-83
2022/02/11 09:10:52;;;;;;;23.77;6.60;;;20.90;53.30;;;;;;4987301;28;87584;-85
2022/02/11 09:13:18;;;;;;;21.88;7.20;;;20.90;53.80;;;;;;4987811;28;88424;-83
2022/02/11 09:15:45;;;;;;;24.48;7.57;;;20.90;54.10;;;;;;4976911;28;88000;-84
2022/02/11 09:18:12;;;;;;;22.92;7.25;;;20.90;53.80;;;;;;4988422;28;88084;-84
2022/02/11 09:20:38;;;;;;;24.63;7.63;;;20.90;54.00;;;;;;4982281;28;90166;-84
2022/02/11 09:23:04;;;;;;;20.95;6.90;;;20.90;54.00;;;;;;4987620;28;87636;-83
2022/02/11 09:25:31;;;;;;;19.30;6.18;;;20.90;54.50;;;;;;4988302;28;86963;-84
2022/02/11 09:27:56;;;;;;;23.83;6.75;;;20.90;54.30;;;;;;4988765;28;87006;-83
2022/02/11 09:30:22;;;;;;;18.92;6.88;;;20.90;54.50;;;;;;4986493;28;88867;-84
2022/02/11 09:32:52;;;;;;;21.65;6.70;;;20.90;54.40;;;;;;4972393;28;91822;-84
2022/02/11 09:35:28;;;;;;;25.80;7.55;;;20.90;54.60;;;;;;4989004;28;87735;-83
2022/02/11 09:37:55;;;;;;;23.20;7.72;;;20.90;55.20;;;;;;4987516;28;87909;-83
2022/02/11 09:40:21;;;;;;;26.73;8.15;;;20.90;55.00;;;;;;4988073;28;87843;-84
2022/02/11 09:42:48;;;;;;;29.63;7.57;;;20.90;54.20;;;;;;4987877;28;87571;-84
2022/02/11 09:45:17;;;;;;;23.50;7.70;;;20.90;52.20;;;;;;4992356;28;87700;-85
2022/02/11 09:47:42;;;;;;;23.60;6.87;;;20.90;51.70;;;;;;4991937;28;87150;-84
2022/02/11 09:50:09;;;;;;;21.10;7.30;;;20.90;52.00;;;;;;4991012;28;90067;-82
2022/02/11 09:52:40;;;;;;;21.65;7.38;;;20.90;52.00;;;;;;4993460;28;86951;-83
2022/02/11 09:58:00;;;;;;;24.90;7.18;;;20.90;53.60;;;;;;4993799;28;87570;-84
2022/02/11 10:00:27;;;;;;;23.80;7.60;;;20.90;54.10;;;;;;4991695;28;88056;-85
2022/02/11 10:02:53;;;;;;;17.90;7.03;;;20.90;54.30;;;;;;4990787;28;87295;-83
2022/02/11 10:05:23;;;;;;;21.85;7.05;;;20.80;54.80;;;;;;4990739;28;87958;-84
2022/02/11 10:07:49;;;;;;;27.35;7.65;;;20.80;54.90;;;;;;4991432;28;87241;-83
2022/02/11 10:10:18;;;;;;;24.50;7.43;;;20.80;55.50;;;;;;4991593;28;88612;-83
2022/02/11 10:12:46;;;;;;;;;;;20.80;55.80;;;;;;4991965;28;87693;-85
2022/02/11 10:15:20;;;;;;;20.48;6.85;;;20.70;55.80;;;;;;4993202;28;87699;-82
2022/02/11 10:17:45;;;;;;;25.95;7.45;;;20.70;56.20;;;;;;4991808;28;87314;-82
2022/02/11 10:20:11;;;;;;;20.95;6.70;;;20.70;56.20;;;;;;4990510;28;88811;-84
2022/02/11 10:22:37;;;;;;;19.88;6.38;;;20.70;56.60;;;;;;4987860;28;88905;-85
2022/02/11 10:25:03;;;;;;;20.50;6.75;;;20.70;56.60;;;;;;4990981;28;87994;-85
2022/02/11 10:27:30;;;;;;;19.23;6.47;;;20.80;55.20;;;;;;4991373;28;87804;-85
2022/02/11 10:30:06;;;;;;;21.63;6.95;;;20.80;54.10;;;;;;4990714;28;87371;-84
2022/02/11 10:32:40;;;;;;;22.52;6.63;;;20.80;55.10;;;;;;4989359;28;89329;-84
2022/02/11 10:35:07;;;;;;;16.40;5.35;;;20.80;55.40;;;;;;4990580;28;87124;-85
2022/02/11 10:37:33;;;;;;;18.85;6.05;;;20.90;55.40;;;;;;4990090;28;87447;-84
2022/02/11 10:40:00;;;;;;;22.17;6.72;;;20.90;55.40;;;;;;4988955;28;90225;-83
2022/02/11 10:42:43;;;;;;;19.23;6.38;;;20.90;54.90;;;;;;4984472;28;88998;-84
2022/02/11 10:45:44;;;;;;;20.50;6.05;;;20.90;54.90;;;;;;4991075;28;88781;-83
2022/02/11 10:48:24;;;;;;;20.00;5.90;;;21.00;54.90;;;;;;4939267;28;87842;-83
2022/02/11 10:50:57;;;;;;;22.25;5.47;;;21.00;54.70;;;;;;4984622;28;87839;-84
2022/02/11 10:53:24;;;;;;;22.27;5.90;;;21.00;54.20;;;;;;4990204;28;87829;-84
2022/02/11 10:55:50;;;;;;;18.98;5.68;;;21.00;54.50;;;;;;4989007;28;87134;-83
2022/02/11 10:58:18;;;;;;;20.92;6.30;;;21.00;54.90;;;;;;4989494;28;88623;-84
2022/02/11 11:00:45;;;;;;;19.42;5.25;;;21.00;54.70;;;;;;5006028;28;88773;-84
2022/02/11 11:03:18;;;;;;;20.27;6.15;;;21.00;55.20;;;;;;4989321;28;90527;-83
2022/02/11 11:05:45;;;;;;;19.35;5.03;;;21.00;55.20;;;;;;4991229;28;87373;-83
2022/02/11 11:08:13;;;;;;;20.58;6.28;;;21.00;55.50;;;;;;4990612;28;87836;-83
2022/02/11 11:10:43;;;;;;;19.45;6.10;;;21.00;55.60;;;;;;4990042;28;88679;-83
2022/02/11 11:13:11;;;;;;;15.70;6.13;;;21.00;55.30;;;;;;4990193;28;89515;-84
2022/02/11 11:15:37;;;;;;;16.15;5.65;;;21.00;55.30;;;;;;4988767;28;87278;-84
2022/02/11 11:18:06;;;;;;;18.50;5.75;;;21.00;55.50;;;;;;4990209;28;88236;-84
2022/02/11 11:20:36;;;;;;;23.38;5.75;;;21.00;55.40;;;;;;4989466;28;87944;-83
2022/02/11 11:23:05;;;;;;;;;;;21.00;55.80;;;;;;4989844;28;87964;-85
2022/02/11 11:26:03;;;;;;;17.23;5.45;;;21.00;56.20;;;;;;5007372;28;87892;-84
2022/02/11 11:28:46;;;;;;;16.80;5.82;;;21.00;56.40;;;;;;4990739;28;86212;-81
2022/02/11 11:31:21;;;;;;;17.75;5.75;;;21.00;56.10;;;;;;5004554;22;87511;-82
2022/02/11 11:33:47;;;;;;;16.52;5.75;;;21.00;55.90;;;;;;4990651;28;87616;-83
2022/02/11 11:36:14;;;;;;;18.65;5.47;;;21.00;56.10;;;;;;4989711;28;88170;-84
2022/02/11 11:38:46;;;;;;;17.80;5.95;;;21.00;56.10;;;;;;4988298;28;87578;-84
2022/02/11 11:41:20;;;;;;;19.25;5.50;;;21.00;56.10;;;;;;4989967;28;89677;-83
2022/02/11 11:43:49;;;;;;;16.42;5.63;;;21.00;56.40;;;;;;4987428;28;87764;-83
2022/02/11 11:46:17;;;;;;;21.80;6.22;;;21.00;56.30;;;;;;4985393;28;86920;-83
2022/02/11 11:49:08;;;;;;;16.13;6.03;;;21.00;56.40;;;;;;4989916;28;86995;-84
2022/02/11 11:51:36;;;;;;;17.77;5.30;;;21.00;56.60;;;;;;4989616;28;88101;-84
2022/02/11 11:54:23;;;;;;;18.80;5.47;;;21.00;55.90;;;;;;4988923;28;87569;-83
2022/02/11 11:57:07;;;;;;;15.52;4.40;;;21.00;56.10;;;;;;4989902;28;87121;-84
2022/02/11 11:59:48;;;;;;;14.13;4.70;;;21.00;56.70;;;;;;4989735;28;87159;-83
2022/02/11 12:02:30;;;;;;;21.58;5.53;;;20.90;56.50;;;;;;4988928;28;89016;-83
2022/02/11 12:05:00;;;;;;;28.55;9.00;;;21.00;56.10;;;;;;4989555;28;88901;-84
2022/02/11 12:07:26;;;;;;;;;;;20.90;55.60;;;;;;4970176;28;87670;-84
2022/02/11 12:09:54;;;;;;;38.78;11.00;;;20.90;55.50;;;;;;4998814;28;87396;-82
2022/02/11 12:12:22;;;;;;;27.90;8.25;;;20.90;54.50;;;;;;4990185;28;90256;-84
2022/02/11 12:14:51;;;;;;;35.20;13.13;;;20.90;55.90;;;;;;4988700;28;88444;-84
2022/02/11 12:17:18;;;;;;;39.30;14.20;;;20.90;54.90;;;;;;4988830;28;86883;-84
2022/02/11 12:19:45;;;;;;;29.95;10.93;;;21.00;55.60;;;;;;4989222;28;87070;-83
2022/02/11 12:22:16;;;;;;;32.42;9.32;;;21.00;56.90;;;;;;4987829;28;87776;-84
2022/02/11 12:27:42;;;;;;;20.13;7.75;;;20.90;56.40;;;;;;4988993;28;88656;-85
2022/02/11 12:30:10;;;;;;;18.83;6.63;;;20.90;54.50;;;;;;4988710;28;87550;-81
2022/02/11 12:32:44;;;;;;;17.40;6.80;;;20.90;54.20;;;;;;4987450;28;88902;-84
2022/02/11 12:35:17;;;;;;;23.65;8.32;;;20.90;54.20;;;;;;4985610;28;87814;-81
2022/02/11 12:37:45;;;;;;;20.23;6.57;;;20.90;54.70;;;;;;4987989;28;87493;-83
2022/02/11 12:40:14;;;;;;;24.13;6.30;;;20.90;52.10;;;;;;4988341;28;87877;-83
2022/02/11 12:42:45;;;;;;;13.57;5.13;;;20.90;53.90;;;;;;4988483;28;87978;-81
2022/02/11 12:45:16;;;;;;;16.90;5.25;;;20.90;52.30;;;;;;4987923;28;87863;-82
2022/02/11 12:47:45;;;;;;;16.02;5.97;;;20.90;51.70;;;;;;4987721;28;86935;-83
2022/02/11 12:50:12;;;;;;;20.37;6.20;;;20.80;52.00;;;;;;4989104;28;87376;-82
2022/02/11 12:52:39;;;;;;;12.93;5.47;;;20.80;51.20;;;;;;4988089;28;88953;-85
2022/02/11 12:55:18;;;;;;;19.65;6.97;;;20.80;50.80;;;;;;4989197;28;88327;-83
2022/02/11 12:57:48;;;;;;;;;;;20.80;50.70;;;;;;4990332;28;87933;-84
2022/02/11 13:00:15;;;;;;;;;;;20.80;53.90;;;;;;4993451;28;86878;-80
2022/02/11 13:02:41;;;;;;;14.40;5.55;;;20.90;53.90;;;;;;4993629;28;88049;-80
2022/02/11 13:05:15;;;;;;;16.10;5.53;;;20.90;51.10;;;;;;4990320;28;87095;-84
2022/02/11 13:07:45;;;;;;;17.92;5.15;;;20.90;51.20;;;;;;4989325;28;88149;-85
2022/02/11 13:10:25;;;;;;;16.30;5.07;;;20.90;51.50;;;;;;4989925;28;87284;-84
2022/02/11 13:12:54;;;;;;;11.77;4.20;;;20.90;52.40;;;;;;4988663;28;88988;-83
2022/02/11 13:15:23;;;;;;;12.37;4.37;;;20.90;51.90;;;;;;4989179;28;90216;-83
2022/02/11 13:17:49;;;;;;;17.20;5.35;;;20.90;52.70;;;;;;4988710;28;88442;-83
2022/02/11 13:20:20;;;;;;;19.50;5.07;;;20.90;51.40;;;;;;4992282;28;87290;-84
2022/02/11 13:22:48;;;;;;;19.10;4.90;;;20.90;51.20;;;;;;4991728;28;87599;-83
2022/02/11 13:25:16;;;;;;;17.88;5.63;;;20.90;50.30;;;;;;4992428;28;87843;-84
2022/02/11 13:27:56;;;;;;;12.90;4.82;;;20.90;51.90;;;;;;4992927;28;87750;-83
2022/02/11 13:30:31;;;;;;;12.07;4.53;;;21.00;52.00;;;;;;4990950;28;87657;-82
2022/02/11 13:32:59;;;;;;;14.13;5.32;;;21.00;51.90;;;;;;4990299;28;88722;-84
2022/02/11 13:35:25;;;;;;;16.48;5.90;;;21.00;51.80;;;;;;4991267;28;88367;-84
2022/02/11 13:37:54;;;;;;;13.98;5.22;;;21.00;51.80;;;;;;4990904;28;87405;-84
2022/02/11 13:40:21;;;;;;;11.82;4.80;;;21.10;51.90;;;;;;4990857;28;87039;-83
2022/02/11 13:42:53;;;;;;;15.35;5.65;;;21.10;51.90;;;;;;4989964;28;88452;-83
2022/02/11 13:45:19;;;;;;;27.00;7.45;;;21.10;51.90;;;;;;4992217;28;88352;-84
2022/02/11 13:48:16;;;;;;;73.13;13.27;;;21.20;51.10;;;;;;4992845;28;87491;-84
2022/02/11 13:51:11;;;;;;;30.73;7.45;;;21.20;49.20;;;;;;4990159;28;87703;-85
2022/02/11 13:53:47;;;;;;;21.02;6.18;;;21.10;50.60;;;;;;4991491;28;88072;-83
2022/02/11 13:56:19;;;;;;;24.48;7.35;;;21.10;51.10;;;;;;4992058;28;88443;-85
2022/02/11 13:59:13;;;;;;;22.42;7.13;;;21.10;51.00;;;;;;4991369;28;88018;-84
2022/02/11 14:01:44;;;;;;;20.58;6.47;;;21.10;51.70;;;;;;4992677;28;87073;-85
2022/02/11 14:04:12;;;;;;;19.38;5.65;;;21.10;51.60;;;;;;4991617;28;88111;-84
2022/02/11 14:06:56;;;;;;;24.23;6.65;;;21.10;51.60;;;;;;4989606;28;90310;-84
2022/02/11 14:09:35;;;;;;;24.67;6.30;;;21.10;51.80;;;;;;4990579;28;88778;-84
2022/02/11 14:12:03;;;;;;;22.27;6.73;;;21.10;51.90;;;;;;4990018;28;87542;-84
2022/02/11 14:14:31;;;;;;;19.60;6.00;;;21.10;52.10;;;;;;4989220;28;90816;-83
2022/02/11 14:17:00;;;;;;;20.00;5.78;;;21.10;52.10;;;;;;4991144;28;88979;-84
2022/02/11 14:19:27;;;;;;;20.67;6.55;;;21.10;52.20;;;;;;4991608;28;87557;-83
2022/02/11 14:21:58;;;;;;;19.48;5.70;;;21.10;52.20;;;;;;4991300;28;88494;-85
2022/02/11 14:24:26;;;;;;;22.05;5.63;;;21.10;52.20;;;;;;4990525;28;89769;-83
2022/02/11 14:26:53;;;;;;;27.27;6.55;;;21.00;52.20;;;;;;4990864;28;87947;-84
2022/02/11 14:29:19;;;;;;;21.65;6.50;;;21.10;52.40;;;;;;4985560;28;87486;-83
2022/02/11 14:31:46;;;;;;;22.25;6.50;;;21.10;51.80;;;;;;4988501;28;89323;-80
2022/02/11 14:34:14;;;;;;;22.23;6.03;;;21.10;51.80;;;;;;4988539;28;89606;-82
2022/02/11 14:36:42;;;;;;;18.90;4.57;;;21.10;51.70;;;;;;4989242;28;87822;-83
2022/02/11 14:39:13;;;;;;;16.15;5.03;;;21.10;51.80;;;;;;4990028;28;87933;-82
2022/02/11 14:42:02;;;;;;;19.50;4.90;;;21.10;51.20;;;;;;4989818;28;87182;-79
2022/02/11 14:44:29;;;;;;;20.17;4.75;;;21.10;53.50;;;;;;4989338;28;88132;-81
2022/02/11 14:46:57;;;;;;;14.98;4.43;;;21.10;49.90;;;;;;4989788;28;87632;-83
2022/02/11 14:49:24;;;;;;;24.08;6.13;;;21.10;49.80;;;;;;4990187;28;87938;-82
2022/02/11 14:51:55;;;;;;;20.05;6.05;;;21.10;50.90;;;;;;4989838;28;86834;-83
2022/02/11 14:54:22;;;;;;;21.27;5.70;;;21.10;49.30;;;;;;4990183;28;87673;-84
2022/02/11 14:56:50;;;;;;;22.13;5.88;;;21.10;49.70;;;;;;4989917;28;87560;-81
2022/02/11 14:59:16;;;;;;;18.67;5.30;;;21.10;50.40;;;;;;4987263;28;88254;-84
2022/02/11 15:01:43;;;;;;;22.55;5.47;;;21.20;50.90;;;;;;4989174;28;87624;-82
2022/02/11 15:04:09;;;;;;;21.67;5.63;;;21.20;51.40;;;;;;4988477;28;87831;-84
2022/02/11 15:06:47;;;;;;;19.83;5.45;;;21.20;51.30;;;;;;4989612;28;87967;-80
2022/02/11 15:09:13;;;;;;;19.70;5.13;;;21.20;51.10;;;;;;4989688;28;87874;-85
2022/02/11 15:11:39;;;;;;;20.23;5.18;;;21.20;52.10;;;;;;4989782;28;88179;-82
2022/02/11 15:14:05;;;;;;;17.10;5.30;;;21.30;52.00;;;;;;4990602;28;90402;-84
2022/02/11 15:16:31;;;;;;;16.30;4.93;;;21.20;51.10;;;;;;4989117;28;87283;-84
2022/02/11 15:18:56;;;;;;;23.25;6.45;;;21.20;51.70;;;;;;4989167;28;87304;-84
2022/02/11 15:21:23;;;;;;;20.75;6.50;;;21.20;52.50;;;;;;4989258;28;87483;-80
2022/02/11 15:23:49;;;;;;;21.95;5.75;;;21.30;53.40;;;;;;4989563;28;89024;-83
2022/02/11 15:26:17;;;;;;;22.13;6.40;;;21.20;54.70;;;;;;4989660;28;87946;-81
2022/02/11 15:28:43;;;;;;;24.50;6.18;;;21.20;55.20;;;;;;4989024;28;87572;-81
2022/02/11 15:31:11;;;;;;;23.98;6.00;;;21.30;55.40;;;;;;4988217;28;87397;-84
2022/02/11 15:33:38;;;;;;;23.70;6.13;;;21.30;55.40;;;;;;4989696;28;87600;-82
2022/02/11 15:36:04;;;;;;;18.88;5.88;;;21.20;55.60;;;;;;4990134;28;87871;-83
2022/02/11 15:38:30;;;;;;;20.23;5.55;;;21.30;55.70;;;;;;4985801;28;87237;-81
2022/02/11 15:40:56;;;;;;;18.83;5.72;;;21.30;56.00;;;;;;4987078;28;86953;-82
2022/02/11 15:43:22;;;;;;;14.95;4.72;;;21.30;56.00;;;;;;4987337;28;87737;-80
2022/02/11 15:45:58;;;;;;;16.42;4.50;;;21.30;55.00;;;;;;4988816;28;87294;-79
2022/02/11 15:48:24;;;;;;;19.17;5.18;;;21.30;55.10;;;;;;4989384;28;88283;-79
2022/02/11 15:50:49;;;;;;;20.80;5.60;;;21.40;54.00;;;;;;4988247;28;87882;-83
2022/02/11 15:53:16;;;;;;;15.60;4.47;;;21.40;53.80;;;;;;4987627;28;87680;-81
2022/02/11 15:55:41;;;;;;;15.10;5.10;;;21.30;54.70;;;;;;4988152;28;87813;-83
2022/02/11 15:58:08;;;;;;;17.77;4.90;;;21.30;55.20;;;;;;4988733;28;87484;-83
2022/02/11 16:00:35;;;;;;;15.38;5.28;;;21.30;55.30;;;;;;4989067;28;87451;-83
2022/02/11 16:03:01;;;;;;;19.50;5.45;;;21.30;55.20;;;;;;4987325;28;87290;-81
2022/02/11 16:05:27;;;;;;;19.08;5.15;;;21.30;55.50;;;;;;4987287;28;89788;-78
2022/02/11 16:07:54;;;;;;;17.00;4.80;;;21.30;56.30;;;;;;4989202;28;87865;-80
2022/02/11 16:10:22;;;;;;;18.40;5.10;;;21.40;55.60;;;;;;4988656;28;88499;-77
2022/02/11 16:12:48;;;;;;;16.17;4.72;;;21.40;55.90;;;;;;4987652;28;89147;-83
2022/02/11 16:15:15;;;;;;;16.50;4.97;;;21.40;56.20;;;;;;4988467;28;89956;-82
2022/02/11 16:18:00;;;;;;;15.27;5.05;;;21.40;56.30;;;;;;4988288;28;87147;-80
2022/02/11 16:20:31;;;;;;;16.35;4.40;;;21.40;56.50;;;;;;4988757;28;87030;-81
2022/02/11 16:22:57;;;;;;;15.73;4.50;;;21.40;56.40;;;;;;4988852;28;87896;-81
2022/02/11 16:25:24;;;;;;;20.77;4.35;;;21.40;56.30;;;;;;4990219;28;87550;-83
2022/02/11 16:27:53;;;;;;;26.17;5.45;;;21.40;56.80;;;;;;4988292;28;87049;-83
2022/02/11 16:30:23;;;;;;;13.50;4.10;;;21.40;56.10;;;;;;4989325;28;86826;-81
2022/02/11 16:32:48;;;;;;;;;;;21.40;56.00;;;;;;4987670;28;88745;-80
2022/02/11 16:35:16;;;;;;;11.38;4.22;;;21.40;56.40;;;;;;4990158;28;87498;-83
2022/02/11 16:37:42;;;;;;;12.07;4.50;;;21.50;55.50;;;;;;4989175;28;89054;-82
2022/02/11 16:40:08;;;;;;;14.60;4.15;;;21.40;56.00;;;;;;4988927;28;86916;-80
2022/02/11 16:42:36;;;;;;;19.30;4.22;;;21.40;55.90;;;;;;4988749;28;87459;-81